createdAt,value
2019-05-30T00:00:46.987Z,11.12
2019-05-30T00:01:46.974Z,11.10
2019-05-30T00:02:46.917Z,11.02
2019-05-30T00:03:46.896Z,11.08
2019-05-30T00:04:46.902Z,11.00
2019-05-30T00:05:46.928Z,10.93
2019-05-30T00:06:46.882Z,10.92
2019-05-30T00:07:46.852Z,10.84
2019-05-30T00:08:46.938Z,10.87
2019-05-30T00:09:46.846Z,10.74
2019-05-30T00:10:46.849Z,10.78
2019-05-30T00:11:46.821Z,10.75
2019-05-30T00:12:46.997Z,10.75
2019-05-30T00:13:46.786Z,10.75
2019-05-30T00:14:46.799Z,10.67
2019-05-30T00:15:46.838Z,10.63
2019-05-30T00:16:46.764Z,10.57
2019-05-30T00:17:46.744Z,10.71
2019-05-30T00:18:46.761Z,10.63
2019-05-30T00:19:46.779Z,10.61
2019-05-30T00:20:46.768Z,10.57
2019-05-30T00:21:46.727Z,10.60
2019-05-30T00:22:46.686Z,10.60
2019-05-30T00:23:46.699Z,10.56
2019-05-30T00:24:46.666Z,10.57
2019-05-30T00:25:46.670Z,10.49
2019-05-30T00:26:46.717Z,10.46
2019-05-30T00:27:46.679Z,10.40
2019-05-30T00:28:46.621Z,10.37
2019-05-30T00:29:46.613Z,10.35
2019-05-30T00:30:46.705Z,10.28
2019-05-30T00:31:46.601Z,10.25
2019-05-30T00:32:46.618Z,10.28
2019-05-30T00:33:46.568Z,10.25
2019-05-30T00:34:46.553Z,10.25
2019-05-30T00:35:46.665Z,10.15
2019-05-30T00:36:46.538Z,10.22
2019-05-30T00:37:46.549Z,10.10
2019-05-30T00:38:46.528Z,9.98
2019-05-30T00:39:46.511Z,10.09
2019-05-30T00:40:46.603Z,10.04
2019-05-30T00:41:46.483Z,10.05
2019-05-30T00:42:46.508Z,10.04
2019-05-30T00:43:46.467Z,9.98
2019-05-30T00:44:46.442Z,9.95
2019-05-30T00:45:46.450Z,9.89
2019-05-30T00:46:46.556Z,9.92
2019-05-30T00:47:46.423Z,9.98
2019-05-30T00:48:46.574Z,9.86
2019-05-30T00:49:46.431Z,9.89
2019-05-30T00:50:46.397Z,9.92
2019-05-30T00:51:46.378Z,9.82
2019-05-30T00:52:46.380Z,9.83
2019-05-30T00:53:46.347Z,9.74
2019-05-30T00:54:46.341Z,9.76
2019-05-30T00:55:46.383Z,9.56
2019-05-30T00:56:46.322Z,9.68
2019-05-30T00:57:46.364Z,9.58
2019-05-30T00:58:46.294Z,9.51
2019-05-30T00:59:46.288Z,9.55
2019-05-30T01:00:46.361Z,9.48
2019-05-30T01:01:46.260Z,9.51
2019-05-30T01:02:46.344Z,9.36
2019-05-30T01:03:46.234Z,9.34
2019-05-30T01:04:46.256Z,9.34
2019-05-30T01:05:46.234Z,9.32
2019-05-30T01:06:46.201Z,9.29
2019-05-30T01:07:46.201Z,9.40
2019-05-30T01:08:46.305Z,9.31
2019-05-30T01:09:46.199Z,9.34
2019-05-30T01:10:46.183Z,9.26
2019-05-30T01:11:46.168Z,9.23
2019-05-30T01:12:46.241Z,9.25
2019-05-30T01:13:46.146Z,9.26
2019-05-30T01:14:46.115Z,9.31
2019-05-30T01:15:46.169Z,9.31
2019-05-30T01:16:46.118Z,9.36
2019-05-30T01:17:46.156Z,9.36
2019-05-30T01:18:46.072Z,9.32
2019-05-30T01:19:46.062Z,9.26
2019-05-30T01:20:46.138Z,9.37
2019-05-30T01:21:46.074Z,9.31
2019-05-30T01:22:46.056Z,9.37
2019-05-30T01:23:46.059Z,9.32
2019-05-30T01:24:46.014Z,9.32
2019-05-30T01:25:46.062Z,9.26
2019-05-30T01:26:46.013Z,9.31
2019-05-30T01:27:45.986Z,9.36
2019-05-30T01:28:45.974Z,9.26
2019-05-30T01:29:45.979Z,9.28
2019-05-30T01:30:58.929Z,9.29
2019-05-30T01:31:46.948Z,9.29
2019-05-30T01:32:45.940Z,9.26
2019-05-30T01:33:45.922Z,9.32
2019-05-30T01:34:46.477Z,9.34
2019-05-30T01:35:45.965Z,9.22
2019-05-30T01:36:45.893Z,9.21
2019-05-30T01:37:45.872Z,9.21
2019-05-30T01:38:45.871Z,9.25
2019-05-30T01:39:45.873Z,9.25
2019-05-30T01:40:45.850Z,9.11
2019-05-30T01:41:45.871Z,9.25
2019-05-30T01:42:45.808Z,9.26
2019-05-30T01:43:45.815Z,9.22
2019-05-30T01:44:45.789Z,9.29
2019-05-30T01:45:45.800Z,9.25
2019-05-30T01:46:45.835Z,9.19
2019-05-30T01:47:45.768Z,9.14
2019-05-30T01:48:45.748Z,9.14
2019-05-30T01:49:45.740Z,9.10
2019-05-30T01:50:45.800Z,9.11
2019-05-30T01:51:45.726Z,9.11
2019-05-30T01:52:45.724Z,9.06
2019-05-30T01:53:45.827Z,8.97
2019-05-30T01:54:45.673Z,8.89
2019-05-30T01:55:48.561Z,8.97
2019-05-30T01:56:45.676Z,9.04
2019-05-30T01:57:45.699Z,9.04
2019-05-30T01:58:45.633Z,8.92
2019-05-30T01:59:45.623Z,8.92
2019-05-30T02:00:45.713Z,8.97
2019-05-30T02:01:45.608Z,8.92
2019-05-30T02:02:45.607Z,8.95
2019-05-30T02:03:45.594Z,8.85
2019-05-30T02:04:45.712Z,8.84
2019-05-30T02:05:45.550Z,8.88
2019-05-30T02:06:45.581Z,8.79
2019-05-30T02:07:45.559Z,8.78
2019-05-30T02:08:45.517Z,8.76
2019-05-30T02:09:45.504Z,8.76
2019-05-30T02:10:45.514Z,8.64
2019-05-30T02:11:45.518Z,8.67
2019-05-30T02:12:45.491Z,8.66
2019-05-30T02:13:45.515Z,8.64
2019-05-30T02:14:45.466Z,8.67
2019-05-30T02:15:45.451Z,8.63
2019-05-30T02:16:45.433Z,8.58
2019-05-30T02:17:45.478Z,8.58
2019-05-30T02:18:45.512Z,8.41
2019-05-30T02:19:45.405Z,8.48
2019-05-30T02:20:45.406Z,8.51
2019-05-30T02:21:45.373Z,8.58
2019-05-30T02:22:45.413Z,8.49
2019-05-30T02:23:45.360Z,8.44
2019-05-30T02:24:45.458Z,8.46
2019-05-30T02:25:45.347Z,8.41
2019-05-30T02:26:45.368Z,8.45
2019-05-30T02:27:45.346Z,8.49
2019-05-30T02:28:45.297Z,8.53
2019-05-30T02:29:45.355Z,8.38
2019-05-30T02:30:45.272Z,8.41
2019-05-30T02:31:45.269Z,8.44
2019-05-30T02:32:45.360Z,8.53
2019-05-30T02:33:45.248Z,8.55
2019-05-30T02:34:45.238Z,8.41
2019-05-30T02:35:45.310Z,8.42
2019-05-30T02:36:45.218Z,8.28
2019-05-30T02:37:45.219Z,8.28
2019-05-30T02:38:45.194Z,8.23
2019-05-30T02:39:45.184Z,8.24
2019-05-30T02:40:45.199Z,8.16
2019-05-30T02:41:45.151Z,8.23
2019-05-30T02:42:45.154Z,8.10
2019-05-30T02:43:45.192Z,8.24
2019-05-30T02:44:45.123Z,8.10
2019-05-30T02:45:45.115Z,8.30
2019-05-30T02:46:45.133Z,8.28
2019-05-30T02:47:45.108Z,8.24
2019-05-30T02:48:58.128Z,8.13
2019-05-30T02:49:46.089Z,8.15
2019-05-30T02:50:45.082Z,8.23
2019-05-30T02:51:45.057Z,8.15
2019-05-30T02:52:45.045Z,8.10
2019-05-30T02:53:45.029Z,8.28
2019-05-30T02:54:45.014Z,8.16
2019-05-30T02:55:45.004Z,8.24
2019-05-30T02:56:45.043Z,8.13
2019-05-30T02:57:44.989Z,8.15
2019-05-30T02:58:45.002Z,8.08
2019-05-30T02:59:45.025Z,8.01
2019-05-30T03:00:44.955Z,8.00
2019-05-30T03:02:00.214Z,8.08
2019-05-30T03:02:45.953Z,8.01
2019-05-30T03:03:44.925Z,8.08
2019-05-30T03:04:44.936Z,7.94
2019-05-30T03:05:44.937Z,7.93
2019-05-30T03:06:44.884Z,7.85
2019-05-30T03:07:44.906Z,7.87
2019-05-30T03:08:45.002Z,7.85
2019-05-30T03:09:44.856Z,7.88
2019-05-30T03:10:44.852Z,8.00
2019-05-30T03:11:44.836Z,7.90
2019-05-30T03:12:45.037Z,7.97
2019-05-30T03:13:44.815Z,8.00
2019-05-30T03:14:44.799Z,7.98
2019-05-30T03:15:44.805Z,7.98
2019-05-30T03:16:44.775Z,7.87
2019-05-30T03:17:44.790Z,7.83
2019-05-30T03:18:44.774Z,7.79
2019-05-30T03:19:44.784Z,7.76
2019-05-30T03:20:44.770Z,7.80
2019-05-30T03:21:44.729Z,7.73
2019-05-30T03:22:44.788Z,7.83
2019-05-30T03:23:44.699Z,7.83
2019-05-30T03:24:44.680Z,7.93
2019-05-30T03:25:44.677Z,7.93
2019-05-30T03:26:44.665Z,7.97
2019-05-30T03:27:44.720Z,7.83
2019-05-30T03:28:44.765Z,7.91
2019-05-30T03:29:44.644Z,7.93
2019-05-30T03:30:44.623Z,7.97
2019-05-30T03:31:44.648Z,7.90
2019-05-30T03:33:07.020Z,7.88
2019-05-30T03:33:45.610Z,7.83
2019-05-30T03:34:44.604Z,7.94
2019-05-30T03:35:44.808Z,7.97
2019-05-30T03:36:44.556Z,8.03
2019-05-30T03:37:44.587Z,7.97
2019-05-30T03:38:44.598Z,8.01
2019-05-30T03:39:44.544Z,7.97
2019-05-30T03:40:44.509Z,8.01
2019-05-30T03:41:44.629Z,7.98
2019-05-30T03:42:44.497Z,7.95
2019-05-30T03:43:44.491Z,7.98
2019-05-30T03:44:44.484Z,7.97
2019-05-30T03:45:44.509Z,8.13
2019-05-30T03:46:44.446Z,8.10
2019-05-30T03:47:44.449Z,7.98
2019-05-30T03:48:44.581Z,8.01
2019-05-30T03:49:44.417Z,8.12
2019-05-30T03:50:44.437Z,8.18
2019-05-30T03:51:44.401Z,8.10
2019-05-30T03:52:44.389Z,8.01
2019-05-30T03:53:44.418Z,8.01
2019-05-30T03:54:44.372Z,8.01
2019-05-30T03:55:44.342Z,8.05
2019-05-30T03:56:44.342Z,8.10
2019-05-30T03:57:44.329Z,8.12
2019-05-30T03:58:44.337Z,8.08
2019-05-30T03:59:44.409Z,8.05
2019-05-30T04:00:44.307Z,8.12
2019-05-30T04:01:44.283Z,8.12
2019-05-30T04:02:56.027Z,8.12
2019-05-30T04:03:45.259Z,7.95
2019-05-30T04:04:44.271Z,8.05
2019-05-30T04:05:44.241Z,8.08
2019-05-30T04:06:44.280Z,8.01
2019-05-30T04:07:44.214Z,8.12
2019-05-30T04:08:44.211Z,8.12
2019-05-30T04:09:44.233Z,8.10
2019-05-30T04:10:44.205Z,8.15
2019-05-30T04:11:44.185Z,8.13
2019-05-30T04:12:44.158Z,8.15
2019-05-30T04:13:44.153Z,8.16
2019-05-30T04:14:44.205Z,8.20
2019-05-30T04:15:44.165Z,8.20
2019-05-30T04:16:44.132Z,8.18
2019-05-30T04:17:44.144Z,8.27
2019-05-30T04:18:44.096Z,8.28
2019-05-30T04:19:44.094Z,8.28
2019-05-30T04:20:44.080Z,8.31
2019-05-30T04:21:44.069Z,8.30
2019-05-30T04:22:44.091Z,8.42
2019-05-30T04:23:44.050Z,8.38
2019-05-30T04:24:44.032Z,8.27
2019-05-30T04:25:44.031Z,8.31
2019-05-30T04:26:44.018Z,8.31
2019-05-30T04:27:44.004Z,8.31
2019-05-30T04:28:44.010Z,8.27
2019-05-30T04:29:44.030Z,8.41
2019-05-30T04:30:43.977Z,8.36
2019-05-30T04:31:43.966Z,8.42
2019-05-30T04:32:43.969Z,8.38
2019-05-30T04:33:43.970Z,8.34
2019-05-30T04:34:43.921Z,8.42
2019-05-30T04:35:43.982Z,8.30
2019-05-30T04:36:43.893Z,8.45
2019-05-30T04:37:43.892Z,8.31
2019-05-30T04:38:43.898Z,8.38
2019-05-30T04:39:43.885Z,8.30
2019-05-30T04:40:43.855Z,8.37
2019-05-30T04:41:43.895Z,8.26
2019-05-30T04:42:43.838Z,8.28
2019-05-30T04:43:43.837Z,8.26
2019-05-30T04:44:43.827Z,8.26
2019-05-30T04:45:43.823Z,8.26
2019-05-30T04:46:43.886Z,8.36
2019-05-30T04:47:43.782Z,8.30
2019-05-30T04:48:43.805Z,8.27
2019-05-30T04:49:43.769Z,8.26
2019-05-30T04:50:43.761Z,8.27
2019-05-30T04:51:43.737Z,8.30
2019-05-30T04:52:43.732Z,8.33
2019-05-30T04:53:43.917Z,8.31
2019-05-30T04:54:43.726Z,8.37
2019-05-30T04:55:43.694Z,8.44
2019-05-30T04:56:43.762Z,8.48
2019-05-30T04:57:43.680Z,8.48
2019-05-30T04:58:43.670Z,8.45
2019-05-30T04:59:43.702Z,8.45
2019-05-30T05:00:43.719Z,8.46
2019-05-30T05:01:43.635Z,8.52
2019-05-30T05:02:43.616Z,8.55
2019-05-30T05:03:46.368Z,8.64
2019-05-30T05:04:43.665Z,8.64
2019-05-30T05:05:43.609Z,8.64
2019-05-30T05:06:43.596Z,8.63
2019-05-30T05:07:43.573Z,8.66
2019-05-30T05:08:43.554Z,8.66
2019-05-30T05:09:43.560Z,8.71
2019-05-30T05:10:43.527Z,8.69
2019-05-30T05:11:43.545Z,8.74
2019-05-30T05:12:43.515Z,8.79
2019-05-30T05:13:43.626Z,8.73
2019-05-30T05:14:43.495Z,8.76
2019-05-30T05:15:43.471Z,8.74
2019-05-30T05:16:43.528Z,8.79
2019-05-30T05:17:43.460Z,8.71
2019-05-30T05:18:43.489Z,8.71
2019-05-30T05:19:43.460Z,8.81
2019-05-30T05:20:43.488Z,8.79
2019-05-30T05:21:43.417Z,8.87
2019-05-30T05:22:43.489Z,8.88
2019-05-30T05:23:43.382Z,8.85
2019-05-30T05:24:43.393Z,8.85
2019-05-30T05:25:43.359Z,8.94
2019-05-30T05:26:43.366Z,8.97
2019-05-30T05:27:43.430Z,8.88
2019-05-30T05:28:43.345Z,8.95
2019-05-30T05:29:43.421Z,8.94
2019-05-30T05:30:43.326Z,8.94
2019-05-30T05:31:43.293Z,9.02
2019-05-30T05:32:43.294Z,9.00
2019-05-30T05:33:55.696Z,9.11
2019-05-30T05:34:44.282Z,9.08
2019-05-30T05:35:43.272Z,9.13
2019-05-30T05:36:43.283Z,9.11
2019-05-30T05:37:43.224Z,9.22
2019-05-30T05:38:43.230Z,9.13
2019-05-30T05:39:43.229Z,9.22
2019-05-30T05:40:43.253Z,9.29
2019-05-30T05:41:43.189Z,9.26
2019-05-30T05:42:43.174Z,9.25
2019-05-30T05:43:43.287Z,9.31
2019-05-30T05:44:43.151Z,9.26
2019-05-30T05:45:43.175Z,9.26
2019-05-30T05:46:43.161Z,9.32
2019-05-30T05:47:43.141Z,9.39
2019-05-30T05:48:43.101Z,9.36
2019-05-30T05:49:43.091Z,9.44
2019-05-30T05:50:43.097Z,9.48
2019-05-30T05:51:43.067Z,9.46
2019-05-30T05:52:43.086Z,9.61
2019-05-30T05:53:43.054Z,9.62
2019-05-30T05:54:43.050Z,9.65
2019-05-30T05:55:43.107Z,9.69
2019-05-30T05:56:43.034Z,9.73
2019-05-30T05:57:43.045Z,9.72
2019-05-30T05:58:43.143Z,9.89
2019-05-30T05:59:42.984Z,9.89
2019-05-30T06:00:43.000Z,9.82
2019-05-30T06:01:42.997Z,9.86
2019-05-30T06:02:42.958Z,9.95
2019-05-30T06:03:42.957Z,9.98
2019-05-30T06:04:42.941Z,9.95
2019-05-30T06:05:52.606Z,10.05
2019-05-30T06:06:43.937Z,10.04
2019-05-30T06:07:42.905Z,10.02
2019-05-30T06:08:42.888Z,10.15
2019-05-30T06:09:42.893Z,10.19
2019-05-30T06:10:42.956Z,10.22
2019-05-30T06:11:42.853Z,10.23
2019-05-30T06:12:42.881Z,10.33
2019-05-30T06:13:42.832Z,10.34
2019-05-30T06:14:42.846Z,10.35
2019-05-30T06:15:42.856Z,10.31
2019-05-30T06:16:42.797Z,10.40
2019-05-30T06:17:42.789Z,10.35
2019-05-30T06:18:42.783Z,10.46
2019-05-30T06:19:46.522Z,10.48
2019-05-30T06:20:42.778Z,10.57
2019-05-30T06:21:53.513Z,10.63
2019-05-30T06:22:43.727Z,10.68
2019-05-30T06:23:45.546Z,10.63
2019-05-30T06:24:42.703Z,10.67
2019-05-30T06:25:42.710Z,10.64
2019-05-30T06:26:42.676Z,10.61
2019-05-30T06:27:42.671Z,10.75
2019-05-30T06:28:42.663Z,10.82
2019-05-30T06:29:42.680Z,10.79
2019-05-30T06:30:42.674Z,10.84
2019-05-30T06:31:42.640Z,10.89
2019-05-30T06:32:42.619Z,11.02
2019-05-30T06:33:42.612Z,11.05
2019-05-30T06:34:42.594Z,10.99
2019-05-30T06:35:42.595Z,11.07
2019-05-30T06:36:42.576Z,11.11
2019-05-30T06:37:42.591Z,11.18
2019-05-30T06:38:42.556Z,11.23
2019-05-30T06:39:42.535Z,11.25
2019-05-30T06:40:42.535Z,11.23
2019-05-30T06:41:42.527Z,11.32
2019-05-30T06:42:42.521Z,11.36
2019-05-30T06:43:42.491Z,11.40
2019-05-30T06:44:42.490Z,11.36
2019-05-30T06:45:42.564Z,11.45
2019-05-30T06:46:42.479Z,11.45
2019-05-30T06:47:42.502Z,11.52
2019-05-30T06:48:42.565Z,11.55
2019-05-30T06:49:42.429Z,11.65
2019-05-30T06:50:42.438Z,11.63
2019-05-30T06:51:42.411Z,11.63
2019-05-30T06:52:42.406Z,11.77
2019-05-30T06:53:42.390Z,11.84
2019-05-30T06:54:42.383Z,11.87
2019-05-30T06:55:42.447Z,11.84
2019-05-30T06:56:44.711Z,11.90
2019-05-30T06:57:42.341Z,11.97
2019-05-30T06:58:48.811Z,12.04
2019-05-30T06:59:43.367Z,12.10
2019-05-30T07:00:42.316Z,12.18
2019-05-30T07:01:42.319Z,12.17
2019-05-30T07:02:42.356Z,12.21
2019-05-30T07:03:42.413Z,12.25
2019-05-30T07:04:51.550Z,12.27
2019-05-30T07:05:43.669Z,12.27
2019-05-30T07:06:42.606Z,12.35
2019-05-30T07:07:42.380Z,12.49
2019-05-30T07:08:42.244Z,12.53
2019-05-30T07:09:42.220Z,12.49
2019-05-30T07:10:42.214Z,12.58
2019-05-30T07:11:42.234Z,12.57
2019-05-30T07:12:42.181Z,12.76
2019-05-30T07:13:42.178Z,12.76
2019-05-30T07:14:42.177Z,12.75
2019-05-30T07:15:42.164Z,12.86
2019-05-30T07:16:42.137Z,12.97
2019-05-30T07:17:42.129Z,12.90
2019-05-30T07:18:42.126Z,13.01
2019-05-30T07:19:42.113Z,13.03
2019-05-30T07:20:42.151Z,13.11
2019-05-30T07:21:42.096Z,13.23
2019-05-30T07:22:42.075Z,13.20
2019-05-30T07:23:42.070Z,13.37
2019-05-30T07:24:42.326Z,13.37
2019-05-30T07:25:42.044Z,13.42
2019-05-30T07:26:42.033Z,13.53
2019-05-30T07:27:42.068Z,13.56
2019-05-30T07:28:42.062Z,13.67
2019-05-30T07:29:42.051Z,13.68
2019-05-30T07:30:41.981Z,13.79
2019-05-30T07:31:42.040Z,13.79
2019-05-30T07:32:41.999Z,13.83
2019-05-30T07:33:41.950Z,13.90
2019-05-30T07:34:45.604Z,14.04
2019-05-30T07:35:41.952Z,14.10
2019-05-30T07:36:41.924Z,14.18
2019-05-30T07:37:41.910Z,14.30
2019-05-30T07:38:41.996Z,14.26
2019-05-30T07:39:41.887Z,14.33
2019-05-30T07:40:41.955Z,14.30
2019-05-30T07:41:41.865Z,14.32
2019-05-30T07:42:41.862Z,14.41
2019-05-30T07:43:41.850Z,14.45
2019-05-30T07:44:41.841Z,14.53
2019-05-30T07:45:46.759Z,14.60
2019-05-30T07:46:42.808Z,14.69
2019-05-30T07:47:41.794Z,14.73
2019-05-30T07:48:41.788Z,14.86
2019-05-30T07:49:41.846Z,14.96
2019-05-30T07:50:41.799Z,15.09
2019-05-30T07:51:42.205Z,15.11
2019-05-30T07:52:42.781Z,15.75
2019-05-30T07:53:41.735Z,15.72
2019-05-30T07:54:41.749Z,15.65
2019-05-30T07:55:41.730Z,15.55
2019-05-30T07:56:41.745Z,15.43
2019-05-30T07:57:41.951Z,15.35
2019-05-30T07:58:41.681Z,15.22
2019-05-30T07:59:41.687Z,15.06
2019-05-30T08:00:41.670Z,14.94
2019-05-30T08:01:41.743Z,14.82
2019-05-30T08:02:41.678Z,14.73
2019-05-30T08:03:41.677Z,14.68
2019-05-30T08:04:41.651Z,14.62
2019-05-30T08:05:41.632Z,14.59
2019-05-30T08:06:41.616Z,14.60
2019-05-30T08:07:41.734Z,14.63
2019-05-30T08:08:41.599Z,14.60
2019-05-30T08:09:41.619Z,14.68
2019-05-30T08:10:41.580Z,14.54
2019-05-30T08:11:41.607Z,14.58
2019-05-30T08:12:41.614Z,14.51
2019-05-30T08:13:41.559Z,14.51
2019-05-30T08:14:41.708Z,14.51
2019-05-30T08:15:44.054Z,14.60
2019-05-30T08:16:41.494Z,14.55
2019-05-30T08:17:44.326Z,14.60
2019-05-30T08:18:41.508Z,14.68
2019-05-30T08:19:41.446Z,14.58
2019-05-30T08:20:41.454Z,14.65
2019-05-30T08:21:41.524Z,14.55
2019-05-30T08:22:41.428Z,14.55
2019-05-30T08:23:41.409Z,14.65
2019-05-30T08:24:41.444Z,14.59
2019-05-30T08:25:41.383Z,14.65
2019-05-30T08:26:41.388Z,14.62
2019-05-30T08:27:41.434Z,14.63
2019-05-30T08:28:42.729Z,14.60
2019-05-30T08:29:41.452Z,14.60
2019-05-30T08:30:41.353Z,14.55
2019-05-30T08:31:41.385Z,14.59
2019-05-30T08:32:41.324Z,14.65
2019-05-30T08:33:41.297Z,14.59
2019-05-30T08:34:41.286Z,14.68
2019-05-30T08:35:49.224Z,14.70
2019-05-30T08:36:42.284Z,14.77
2019-05-30T08:37:41.268Z,14.78
2019-05-30T08:38:41.311Z,14.72
2019-05-30T08:39:41.283Z,14.86
2019-05-30T08:40:41.224Z,14.81
2019-05-30T08:41:41.230Z,14.88
2019-05-30T08:42:41.274Z,14.82
2019-05-30T08:43:41.202Z,14.88
2019-05-30T08:44:41.222Z,14.94
2019-05-30T08:45:41.175Z,14.91
2019-05-30T08:46:41.166Z,14.94
2019-05-30T08:47:41.177Z,14.99
2019-05-30T08:48:41.129Z,14.99
2019-05-30T08:49:41.115Z,14.97
2019-05-30T08:50:44.325Z,15.15
2019-05-30T08:51:41.117Z,15.07
2019-05-30T08:52:41.213Z,15.07
2019-05-30T08:53:41.088Z,15.10
2019-05-30T08:54:41.060Z,15.11
2019-05-30T08:55:41.069Z,15.10
2019-05-30T08:56:41.048Z,15.14
2019-05-30T08:57:41.219Z,15.14
2019-05-30T08:58:41.045Z,15.10
2019-05-30T08:59:44.517Z,15.11
2019-05-30T09:00:41.004Z,15.19
2019-05-30T09:01:42.134Z,15.25
2019-05-30T09:02:41.146Z,15.18
2019-05-30T09:03:42.150Z,15.35
2019-05-30T09:04:41.990Z,15.33
2019-05-30T09:05:58.158Z,15.47
2019-05-30T09:06:42.107Z,15.46
2019-05-30T09:07:42.733Z,15.49
2019-05-30T09:08:41.935Z,15.54
2019-05-30T09:09:42.155Z,15.52
2019-05-30T09:10:41.315Z,15.65
2019-05-30T09:11:42.242Z,15.57
2019-05-30T09:12:42.794Z,15.54
2019-05-30T09:13:40.874Z,15.65
2019-05-30T09:14:41.249Z,15.68
2019-05-30T09:15:41.123Z,15.62
2019-05-30T09:16:40.834Z,15.67
2019-05-30T09:17:42.467Z,15.61
2019-05-30T09:18:41.621Z,15.68
2019-05-30T09:19:41.486Z,15.67
2019-05-30T09:20:41.918Z,15.64
2019-05-30T09:21:41.458Z,15.76
2019-05-30T09:22:41.863Z,15.72
2019-05-30T09:23:42.245Z,15.79
2019-05-30T09:24:41.956Z,15.82
2019-05-30T09:25:41.527Z,15.75
2019-05-30T09:26:44.199Z,15.73
2019-05-30T09:27:42.859Z,15.72
2019-05-30T09:28:41.182Z,15.73
2019-05-30T09:29:41.665Z,15.79
2019-05-30T09:30:41.680Z,15.72
2019-05-30T09:31:41.194Z,15.75
2019-05-30T09:32:41.375Z,15.64
2019-05-30T09:33:40.958Z,15.79
2019-05-30T09:34:42.018Z,15.79
2019-05-30T09:35:41.448Z,15.70
2019-05-30T09:36:41.022Z,15.82
2019-05-30T09:37:42.014Z,15.82
2019-05-30T09:38:41.791Z,15.84
2019-05-30T09:39:41.539Z,15.88
2019-05-30T09:40:42.009Z,15.94
2019-05-30T09:41:42.050Z,15.97
2019-05-30T09:42:41.178Z,16.01
2019-05-30T09:43:41.581Z,16.00
2019-05-30T09:44:41.948Z,16.00
2019-05-30T09:45:41.251Z,16.04
2019-05-30T09:46:41.461Z,16.15
2019-05-30T09:47:43.019Z,16.16
2019-05-30T09:48:42.038Z,16.20
2019-05-30T09:49:41.856Z,16.23
2019-05-30T09:50:41.979Z,16.31
2019-05-30T09:51:40.563Z,16.24
2019-05-30T09:52:41.741Z,16.36
2019-05-30T09:53:41.057Z,16.46
2019-05-30T09:54:41.180Z,16.35
2019-05-30T09:55:41.328Z,16.46
2019-05-30T09:56:40.447Z,16.53
2019-05-30T09:57:42.396Z,16.51
2019-05-30T09:58:42.254Z,16.60
2019-05-30T09:59:41.785Z,16.56
2019-05-30T10:00:42.835Z,16.56
2019-05-30T10:01:42.625Z,16.66
2019-05-30T10:02:40.408Z,16.58
2019-05-30T10:03:40.346Z,16.74
2019-05-30T10:04:40.336Z,16.75
2019-05-30T10:05:40.315Z,16.71
2019-05-30T10:06:40.314Z,16.72
2019-05-30T10:07:40.287Z,16.71
2019-05-30T10:08:40.304Z,16.74
2019-05-30T10:09:40.267Z,16.81
2019-05-30T10:10:40.253Z,16.78
2019-05-30T10:11:40.244Z,16.79
2019-05-30T10:12:40.235Z,16.75
2019-05-30T10:13:40.262Z,16.72
2019-05-30T10:14:40.215Z,16.75
2019-05-30T10:15:40.222Z,16.86
2019-05-30T10:16:40.195Z,16.79
2019-05-30T10:17:40.181Z,16.87
2019-05-30T10:18:40.160Z,16.86
2019-05-30T10:19:40.191Z,16.87
2019-05-30T10:20:40.143Z,16.99
2019-05-30T10:21:40.165Z,16.93
2019-05-30T10:22:40.134Z,17.05
2019-05-30T10:23:40.227Z,17.05
2019-05-30T10:24:42.997Z,17.06
2019-05-30T10:25:40.078Z,17.01
2019-05-30T10:26:40.072Z,17.12
2019-05-30T10:27:40.062Z,17.14
2019-05-30T10:28:40.057Z,17.16
2019-05-30T10:29:40.068Z,17.15
2019-05-30T10:30:40.114Z,17.20
2019-05-30T10:31:40.015Z,17.23
2019-05-30T10:32:40.084Z,17.30
2019-05-30T10:33:39.996Z,17.26
2019-05-30T10:34:39.995Z,17.24
2019-05-30T10:35:39.967Z,17.26
2019-05-30T10:36:44.120Z,17.24
2019-05-30T10:37:39.953Z,17.23
2019-05-30T10:38:40.032Z,17.38
2019-05-30T10:39:40.072Z,17.29
2019-05-30T10:40:40.068Z,17.36
2019-05-30T10:41:39.907Z,17.26
2019-05-30T10:42:39.914Z,17.31
2019-05-30T10:43:39.905Z,17.30
2019-05-30T10:44:39.882Z,17.30
2019-05-30T10:45:39.873Z,17.24
2019-05-30T10:46:39.851Z,17.41
2019-05-30T10:47:39.907Z,17.33
2019-05-30T10:48:39.822Z,17.36
2019-05-30T10:49:39.831Z,17.27
2019-05-30T10:50:39.973Z,17.30
2019-05-30T10:51:39.807Z,17.34
2019-05-30T10:52:39.777Z,17.26
2019-05-30T10:53:39.768Z,17.24
2019-05-30T10:54:39.776Z,17.27
2019-05-30T10:55:39.765Z,17.29
2019-05-30T10:56:39.746Z,17.24
2019-05-30T10:57:39.728Z,17.26
2019-05-30T10:58:39.862Z,17.22
2019-05-30T10:59:39.817Z,17.11
2019-05-30T11:00:39.699Z,17.22
2019-05-30T11:01:39.726Z,17.24
2019-05-30T11:02:39.679Z,17.27
2019-05-30T11:03:39.685Z,17.22
2019-05-30T11:04:39.661Z,17.27
2019-05-30T11:05:39.654Z,17.39
2019-05-30T11:06:39.738Z,17.33
2019-05-30T11:07:53.061Z,17.36
2019-05-30T11:08:40.639Z,17.45
2019-05-30T11:09:39.623Z,17.31
2019-05-30T11:10:39.610Z,17.34
2019-05-30T11:11:39.666Z,17.46
2019-05-30T11:12:39.575Z,17.45
2019-05-30T11:13:39.560Z,17.51
2019-05-30T11:14:39.572Z,17.64
2019-05-30T11:15:39.567Z,17.59
2019-05-30T11:16:39.538Z,17.64
2019-05-30T11:17:39.516Z,17.72
2019-05-30T11:18:39.567Z,17.71
2019-05-30T11:19:39.523Z,17.72
2019-05-30T11:20:39.504Z,17.70
2019-05-30T11:21:39.534Z,17.78
2019-05-30T11:22:39.532Z,17.79
2019-05-30T11:23:39.455Z,17.76
2019-05-30T11:24:39.481Z,17.85
2019-05-30T11:25:39.430Z,17.76
2019-05-30T11:26:39.460Z,17.80
2019-05-30T11:27:39.517Z,17.76
2019-05-30T11:28:39.512Z,17.76
2019-05-30T11:29:39.620Z,17.64
2019-05-30T11:30:39.550Z,17.59
2019-05-30T11:31:39.457Z,17.64
2019-05-30T11:32:39.387Z,17.48
2019-05-30T11:33:39.354Z,17.51
2019-05-30T11:34:39.426Z,17.44
2019-05-30T11:35:39.372Z,17.41
2019-05-30T11:36:39.352Z,17.39
2019-05-30T11:37:39.317Z,17.44
2019-05-30T11:38:39.348Z,17.44
2019-05-30T11:39:39.302Z,17.56
2019-05-30T11:40:39.272Z,17.60
2019-05-30T11:41:39.380Z,17.56
2019-05-30T11:42:39.300Z,17.60
2019-05-30T11:43:39.254Z,17.60
2019-05-30T11:44:39.255Z,17.59
2019-05-30T11:45:39.215Z,17.64
2019-05-30T11:46:39.302Z,17.65
2019-05-30T11:47:39.223Z,17.60
2019-05-30T11:48:39.204Z,17.67
2019-05-30T11:49:39.215Z,17.67
2019-05-30T11:50:39.160Z,17.74
2019-05-30T11:51:39.152Z,17.70
2019-05-30T11:52:39.210Z,17.67
2019-05-30T11:53:39.188Z,17.71
2019-05-30T11:54:39.166Z,17.78
2019-05-30T11:55:39.134Z,17.80
2019-05-30T11:56:39.116Z,17.83
2019-05-30T11:57:39.106Z,17.83
2019-05-30T11:58:39.086Z,17.86
2019-05-30T11:59:39.062Z,17.85
2019-05-30T12:00:39.050Z,17.87
2019-05-30T12:01:39.036Z,17.86
2019-05-30T12:02:39.033Z,17.83
2019-05-30T12:03:39.086Z,17.90
2019-05-30T12:04:39.147Z,17.89
2019-05-30T12:05:39.002Z,17.86
2019-05-30T12:06:38.999Z,17.89
2019-05-30T12:07:38.994Z,17.83
2019-05-30T12:08:38.969Z,17.90
2019-05-30T12:09:38.993Z,17.97
2019-05-30T12:10:38.950Z,17.97
2019-05-30T12:11:38.964Z,17.90
2019-05-30T12:12:38.926Z,17.85
2019-05-30T12:13:38.926Z,17.82
2019-05-30T12:14:39.004Z,17.95
2019-05-30T12:15:38.896Z,17.87
2019-05-30T12:16:38.877Z,17.92
2019-05-30T12:17:38.886Z,17.85
2019-05-30T12:18:38.867Z,17.82
2019-05-30T12:19:38.845Z,17.83
2019-05-30T12:20:38.844Z,17.82
2019-05-30T12:21:38.865Z,17.79
2019-05-30T12:22:38.821Z,17.82
2019-05-30T12:23:38.800Z,17.79
2019-05-30T12:24:38.792Z,17.82
2019-05-30T12:25:38.816Z,17.79
2019-05-30T12:26:38.782Z,17.82
2019-05-30T12:27:38.759Z,17.78
2019-05-30T12:28:38.745Z,17.72
2019-05-30T12:29:38.752Z,17.72
2019-05-30T12:30:54.401Z,17.74
2019-05-30T12:31:39.746Z,17.79
2019-05-30T12:32:39.558Z,17.87
2019-05-30T12:33:39.047Z,17.92
2019-05-30T12:34:38.835Z,18.19
2019-05-30T12:35:38.796Z,18.26
2019-05-30T12:36:38.682Z,18.37
2019-05-30T12:37:53.621Z,18.52
2019-05-30T12:38:39.786Z,18.53
2019-05-30T12:39:38.846Z,18.50
2019-05-30T12:40:39.427Z,18.50
2019-05-30T12:41:38.660Z,18.50
2019-05-30T12:42:38.637Z,18.62
2019-05-30T12:43:38.615Z,18.66
2019-05-30T12:44:38.623Z,18.75
2019-05-30T12:45:38.575Z,18.80
2019-05-30T12:46:38.579Z,18.86
2019-05-30T12:47:38.543Z,18.89
2019-05-30T12:48:38.544Z,19.00
2019-05-30T12:49:38.517Z,19.09
2019-05-30T12:50:38.817Z,19.14
2019-05-30T12:51:38.492Z,19.12
2019-05-30T12:52:38.522Z,19.21
2019-05-30T12:53:38.472Z,19.22
2019-05-30T12:54:38.570Z,19.18
2019-05-30T12:55:39.034Z,19.31
2019-05-30T12:56:38.455Z,19.34
2019-05-30T12:57:38.978Z,19.45
2019-05-30T12:58:38.472Z,19.41
2019-05-30T12:59:38.409Z,19.45
2019-05-30T13:00:38.643Z,19.51
2019-05-30T13:01:38.392Z,19.54
2019-05-30T13:02:38.386Z,19.62
2019-05-30T13:03:38.384Z,19.66